Time;durP1;ratioP1;P1;durP2;ratioP2;P2;SDS_P1;SDS_P2;PMS_P1;PMS_P2;Temp;Humidity;BMP_temperature;BMP_pressure;BME280_temperature;BME280_humidity;BME280_pressure;Samples;Min_cycle;Max_cycle;Signal;HPM_P1;HPM_P2
2023/10/24 00:02:05;;;;;;;;;;;;;;;10.63;100.00;100257.00;5026117;28;20307;-76
2023/10/24 00:04:30;;;;;;;;;;;;;;;10.65;100.00;100249.94;5045305;28;19920;-76
2023/10/24 00:06:56;;;;;;;;;;;;;;;10.63;100.00;100244.81;5015616;28;19928;-76
2023/10/24 00:09:21;;;;;;;;;;;;;;;10.63;100.00;100247.41;5016143;28;19917;-77
2023/10/24 00:11:46;;;;;;;;;;;;;;;10.64;100.00;100245.66;5014338;28;20399;-76
2023/10/24 00:14:11;;;;;;;;;;;;;;;10.64;100.00;100253.47;5018878;28;19918;-76
2023/10/24 00:16:37;;;;;;;;;;;;;;;10.63;100.00;100239.59;5029998;28;20394;-76
2023/10/24 00:19:02;;;;;;;;;;;;;;;10.63;100.00;100246.56;5015039;28;19921;-76
2023/10/24 00:21:27;;;;;;;;;;;;;;;10.63;100.00;100252.63;5012169;28;20300;-76
2023/10/24 00:23:52;;;;;;;;;;;;;;;10.63;100.00;100243.97;5022510;28;20001;-76
2023/10/24 00:26:18;;;;;;;;;;;;;;;10.63;100.00;100239.59;5035833;28;19917;-76
2023/10/24 00:28:43;;;;;;;;;;;;;;;10.63;100.00;100242.19;5007801;28;20403;-76
2023/10/24 00:31:08;;;;;;;;;;;;;;;10.63;100.00;100257.00;5023543;28;19925;-77
2023/10/24 00:33:34;;;;;;;;;;;;;;;10.63;100.00;100247.41;5030498;28;19928;-76
2023/10/24 00:35:59;;;;;;;;;;;;;;;10.61;100.00;100245.75;5038902;28;19924;-76
2023/10/24 00:38:24;;;;;;;;;;;;;;;10.59;100.00;100243.19;5021305;28;19924;-76
2023/10/24 00:40:49;;;;;;;;;;;;;;;10.58;100.00;100243.25;5032998;28;20417;-76
2023/10/24 00:43:14;;;;;;;;;;;;;;;10.57;100.00;100244.16;5033266;28;19938;-76
2023/10/24 00:45:41;;;;;;;;;;;;;;;10.55;100.00;100250.25;5022208;28;19917;-76
2023/10/24 00:48:06;;;;;;;;;;;;;;;10.54;100.00;100248.56;5017280;28;19975;-76
2023/10/24 00:50:32;;;;;;;;;;;;;;;10.52;100.00;100249.50;5028396;28;19977;-77
2023/10/24 00:52:58;;;;;;;;;;;;;;;10.50;100.00;100254.78;5026790;28;19917;-77
2023/10/24 00:55:23;;;;;;;;;;;;;;;10.49;100.00;100258.25;5042840;28;19935;-77
2023/10/24 00:57:50;;;;;;;;;;;;;;;10.49;100.00;100260.03;5012481;28;19918;-77
2023/10/24 01:00:15;;;;;;;;;;;;;;;10.48;100.00;100258.31;5039111;28;19925;-76
2023/10/24 01:02:40;;;;;;;;;;;;;;;10.47;100.00;100256.63;5012670;28;19917;-76
2023/10/24 01:05:07;;;;;;;;;;;;;;;10.46;100.00;100250.56;5039795;28;19929;-76
2023/10/24 01:07:33;;;;;;;;;;;;;;;10.45;100.00;100255.81;5002457;28;20415;-77
2023/10/24 01:09:58;;;;;;;;;;;;;;;10.44;100.00;100247.16;5038927;28;19918;-76
2023/10/24 01:12:24;;;;;;;;;;;;;;;10.43;100.00;100244.56;5011795;28;20325;-77
2023/10/24 01:14:49;;;;;;;;;;;;;;;10.41;100.00;100254.22;5023787;28;19963;-76
2023/10/24 01:17:14;;;;;;;;;;;;;;;10.38;100.00;100244.75;5004153;28;19918;-76
2023/10/24 01:19:39;;;;;;;;;;;;;;;10.38;100.00;100249.09;5046504;28;19916;-76
2023/10/24 01:22:05;;;;;;;;;;;;;;;10.36;100.00;100254.34;5015077;28;19917;-77
2023/10/24 01:24:30;;;;;;;;;;;;;;;10.33;100.00;100249.22;5037199;28;19960;-77
2023/10/24 01:26:56;;;;;;;;;;;;;;;10.32;100.00;100242.31;4997178;28;20365;-76
2023/10/24 01:29:22;;;;;;;;;;;;;;;10.33;100.00;100251.84;5006905;28;19961;-76
2023/10/24 01:31:47;;;;;;;;;;;;;;;10.30;100.00;100250.22;5015869;28;20295;-77
2023/10/24 01:34:12;;;;;;;;;;;;;;;10.29;100.00;100258.06;5055457;28;19920;-76
2023/10/24 01:36:37;;;;;;;;;;;;;;;10.29;100.00;100258.91;5014657;28;19917;-76
2023/10/24 01:39:03;;;;;;;;;;;;;;;10.28;100.00;100257.19;5008282;28;20003;-76
2023/10/24 01:41:28;;;;;;;;;;;;;;;10.28;100.00;100248.53;5012393;28;19918;-77
2023/10/24 01:43:53;;;;;;;;;;;;;;;10.27;100.00;100246.84;5055778;28;19951;-76
2023/10/24 01:46:19;;;;;;;;;;;;;;;10.26;100.00;100243.38;5011308;28;19921;-76
2023/10/24 01:48:44;;;;;;;;;;;;;;;10.24;100.00;100242.53;5012627;28;19917;-76
2023/10/24 01:51:09;;;;;;;;;;;;;;;10.23;100.00;100242.56;5011225;28;19972;-77
2023/10/24 01:53:34;;;;;;;;;;;;;;;10.21;100.00;100240.03;5020680;28;19924;-76
2023/10/24 01:55:59;;;;;;;;;;;;;;;10.21;100.00;100237.44;5038702;28;20001;-76
2023/10/24 01:58:24;;;;;;;;;;;;;;;10.20;100.00;100253.09;5024512;28;20379;-76
2023/10/24 02:00:50;;;;;;;;;;;;;;;10.19;100.00;100251.41;5042069;28;20402;-76
2023/10/24 02:03:15;;;;;;;;;;;;;;;10.19;100.00;100254.00;5035146;28;19928;-76
2023/10/24 02:05:40;;;;;;;;;;;;;;;10.19;100.00;100240.97;5031841;28;19920;-76
2023/10/24 02:08:05;;;;;;;;;;;;;;;10.20;100.00;100240.06;5015518;28;20381;-76
2023/10/24 02:10:30;;;;;;;;;;;;;;;10.18;100.00;100249.69;5044514;28;19925;-76
2023/10/24 02:12:56;;;;;;;;;;;;;;;10.16;100.00;100241.91;5021121;28;19920;-73
2023/10/24 02:15:21;;;;;;;;;;;;;;;10.14;100.00;100245.50;5029202;28;19956;-74
2023/10/24 02:17:46;;;;;;;;;;;;;;;10.13;100.00;100256.78;5038289;28;19950;-74
2023/10/24 02:20:12;;;;;;;;;;;;;;;10.10;100.00;100249.91;5019606;28;19917;-74
2023/10/24 02:22:37;;;;;;;;;;;;;;;10.10;100.00;100252.53;5010225;28;19917;-74
2023/10/24 02:25:02;;;;;;;;;;;;;;;10.03;100.00;100246.66;5013447;28;20004;-74
2023/10/24 02:27:27;;;;;;;;;;;;;;;10.01;100.00;100245.03;5038151;28;20310;-74
2023/10/24 02:29:53;;;;;;;;;;;;;;;9.98;100.00;100245.97;5041268;28;19925;-74
2023/10/24 02:32:18;;;;;;;;;;;;;;;9.96;100.00;100254.72;5014382;28;20384;-74
2023/10/24 02:34:47;;;;;;;;;;;;;;;9.94;100.00;100257.38;5013491;28;19942;-74
2023/10/24 02:37:12;;;;;;;;;;;;;;;9.94;100.00;100261.69;5043894;28;19931;-74
2023/10/24 02:39:37;;;;;;;;;;;;;;;9.91;100.00;100267.88;5018529;28;20288;-74
2023/10/24 02:42:03;;;;;;;;;;;;;;;9.89;100.00;100261.00;5021894;28;20004;-74
2023/10/24 02:44:28;;;;;;;;;;;;;;;9.86;100.00;100259.34;5039779;28;20369;-74
2023/10/24 02:46:53;;;;;;;;;;;;;;;9.84;100.00;100261.13;5017588;28;20439;-74
2023/10/24 02:49:18;;;;;;;;;;;;;;;9.83;100.00;100260.28;5019735;28;19925;-74
2023/10/24 02:51:44;;;;;;;;;;;;;;;9.82;100.00;100257.72;5034770;28;19917;-74
2023/10/24 02:54:09;;;;;;;;;;;;;;;9.81;100.00;100269.91;5007972;28;20023;-74
2023/10/24 02:56:34;;;;;;;;;;;;;;;9.79;100.00;100266.47;5018428;28;20390;-74
2023/10/24 02:59:00;;;;;;;;;;;;;;;9.77;100.00;100272.63;5040375;28;20379;-74
2023/10/24 03:01:25;;;;;;;;;;;;;;;9.76;100.00;100278.72;5012709;28;19917;-74
2023/10/24 03:03:50;;;;;;;;;;;;;;;9.76;100.00;100281.34;5023991;28;19918;-74
2023/10/24 03:06:17;;;;;;;;;;;;;;;9.76;100.00;100274.38;5042417;28;19915;-74
2023/10/24 03:08:42;;;;;;;;;;;;;;;9.76;100.00;100283.94;5024867;28;19962;-74
2023/10/24 03:11:08;;;;;;;;;;;;;;;9.76;100.00;100287.38;5007927;28;19960;-74
2023/10/24 03:13:33;;;;;;;;;;;;;;;9.73;100.00;100290.09;5023224;28;19967;-74
2023/10/24 03:16:04;;;;;;;;;;;;;;;9.72;100.00;100277.97;5024910;28;19924;-74
2023/10/24 03:18:30;;;;;;;;;;;;;;;9.70;100.00;100276.31;5022507;28;20006;-74
2023/10/24 03:20:56;;;;;;;;;;;;;;;9.71;100.00;100288.41;5016277;28;20011;-74
2023/10/24 03:23:21;;;;;;;;;;;;;;;9.72;100.00;100283.19;5029103;28;19917;-74
2023/10/24 03:25:46;;;;;;;;;;;;;;;9.73;100.00;100284.03;5025112;28;19947;-74
2023/10/24 03:28:11;;;;;;;;;;;;;;;9.73;100.00;100279.66;5035196;28;19918;-74
2023/10/24 03:30:36;;;;;;;;;;;;;;;9.73;100.00;100284.03;5021715;28;19948;-74
2023/10/24 03:33:02;;;;;;;;;;;;;;;9.72;100.00;100282.34;5021802;28;20349;-74
2023/10/24 03:35:28;;;;;;;;;;;;;;;9.73;100.00;100278.81;5022758;28;19917;-74
2023/10/24 03:37:53;;;;;;;;;;;;;;;9.73;100.00;100284.03;5044954;28;19924;-74
2023/10/24 03:40:19;;;;;;;;;;;;;;;9.73;100.00;100284.03;5020512;28;19954;-74
2023/10/24 03:42:44;;;;;;;;;;;;;;;9.73;100.00;100281.44;5011237;28;20356;-74
2023/10/24 03:45:09;;;;;;;;;;;;;;;9.73;100.00;100281.44;5015666;28;19921;-74
2023/10/24 03:47:35;;;;;;;;;;;;;;;9.72;100.00;100284.94;5038246;28;19917;-74
2023/10/24 03:50:00;;;;;;;;;;;;;;;9.72;100.00;100280.56;5015150;28;19967;-74
2023/10/24 03:52:25;;;;;;;;;;;;;;;9.73;100.00;100292.69;5019359;28;20317;-74
2023/10/24 03:54:50;;;;;;;;;;;;;;;9.72;100.00;100291.00;5049843;28;19917;-74
2023/10/24 03:57:15;;;;;;;;;;;;;;;9.73;100.00;100286.63;5059873;28;19928;-74
2023/10/24 03:59:40;;;;;;;;;;;;;;;9.72;100.00;100288.38;5043878;28;19915;-74
2023/10/24 04:02:06;;;;;;;;;;;;;;;9.70;100.00;100297.13;5049465;28;21237;-74
2023/10/24 04:04:31;;;;;;;;;;;;;;;9.70;100.00;100294.53;5047564;28;19921;-74
2023/10/24 04:06:56;;;;;;;;;;;;;;;9.68;100.00;100291.09;5057629;28;19924;-73
2023/10/24 04:09:21;;;;;;;;;;;;;;;9.66;100.00;100291.16;5031049;28;19924;-74
2023/10/24 04:11:47;;;;;;;;;;;;;;;9.67;100.00;100282.44;5032521;28;20353;-73
2023/10/24 04:14:12;;;;;;;;;;;;;;;9.67;100.00;100287.66;5018129;28;19917;-74
2023/10/24 04:16:37;;;;;;;;;;;;;;;9.67;100.00;100290.25;5037201;28;20095;-74
2023/10/24 04:19:02;;;;;;;;;;;;;;;9.67;100.00;100290.25;5017047;28;20001;-74
2023/10/24 04:21:27;;;;;;;;;;;;;;;9.67;100.00;100285.03;5033316;28;19916;-74
2023/10/24 04:23:53;;;;;;;;;;;;;;;9.69;100.00;100277.22;5007514;28;19947;-74
2023/10/24 04:26:18;;;;;;;;;;;;;;;9.68;100.00;100265.94;5039869;28;19927;-74
2023/10/24 04:28:43;;;;;;;;;;;;;;;9.66;100.00;100262.53;5023261;28;19916;-74
2023/10/24 04:31:09;;;;;;;;;;;;;;;9.64;100.00;100250.44;5016520;28;19928;-74
2023/10/24 04:33:34;;;;;;;;;;;;;;;9.63;100.00;100251.34;5011494;28;20338;-74
2023/10/24 04:35:59;;;;;;;;;;;;;;;9.61;100.00;100246.19;5023514;28;19971;-74
2023/10/24 04:38:24;;;;;;;;;;;;;;;9.60;100.00;100247.94;5011244;28;19999;-74
2023/10/24 04:40:51;;;;;;;;;;;;;;;9.60;100.00;100247.09;5024836;28;19918;-74
2023/10/24 04:43:16;;;;;;;;;;;;;;;9.59;100.00;100251.44;5017988;28;20294;-74
2023/10/24 04:45:42;;;;;;;;;;;;;;;9.57;100.00;100248.03;5052034;28;19922;-74
2023/10/24 04:48:07;;;;;;;;;;;;;;;9.57;100.00;100257.59;5013911;28;19917;-74
2023/10/24 04:50:36;;;;;;;;;;;;;;;9.55;100.00;100262.84;5056023;28;19962;-74
2023/10/24 04:53:01;;;;;;;;;;;;;;;9.52;100.00;100254.28;5014087;28;19963;-74
2023/10/24 04:55:28;;;;;;;;;;;;;;;9.50;100.00;100264.72;5021504;28;19920;-74
2023/10/24 04:57:53;;;;;;;;;;;;;;;9.50;100.00;100262.09;5018212;28;19920;-76
2023/10/24 05:00:18;;;;;;;;;;;;;;;9.48;100.00;100258.72;5012216;28;19928;-76
2023/10/24 05:02:43;;;;;;;;;;;;;;;9.49;100.00;100257.81;5018647;28;20315;-76
2023/10/24 05:05:09;;;;;;;;;;;;;;;9.51;100.00;100258.59;5021333;28;20376;-76
2023/10/24 05:07:35;;;;;;;;;;;;;;;9.54;100.00;100261.13;5025454;28;19939;-76
2023/10/24 05:10:00;;;;;;;;;;;;;;;9.55;100.00;100259.41;5049058;28;19924;-76
2023/10/24 05:12:25;;;;;;;;;;;;;;;9.56;100.00;100261.94;5028826;28;20288;-76
2023/10/24 05:14:50;;;;;;;;;;;;;;;9.56;100.00;100267.13;5007809;28;19923;-76
2023/10/24 05:17:16;;;;;;;;;;;;;;;9.57;100.00;100263.63;5036389;28;19921;-76
2023/10/24 05:19:41;;;;;;;;;;;;;;;9.58;100.00;100262.75;5015374;28;19917;-76
2023/10/24 05:22:07;;;;;;;;;;;;;;;9.59;100.00;100263.59;5041197;28;19919;-75
2023/10/24 05:24:32;;;;;;;;;;;;;;;9.59;100.00;100263.59;5016928;28;20760;-75
2023/10/24 05:26:57;;;;;;;;;;;;;;;9.60;100.00;100265.31;5032210;28;19916;-75
2023/10/24 05:29:22;;;;;;;;;;;;;;;9.60;100.00;100257.50;5019449;28;20299;-75
2023/10/24 05:31:48;;;;;;;;;;;;;;;9.61;100.00;100246.19;5034582;28;20353;-75
2023/10/24 05:34:13;;;;;;;;;;;;;;;9.60;100.00;100237.53;5021381;28;19924;-75
2023/10/24 05:36:38;;;;;;;;;;;;;;;9.60;100.00;100237.53;5016948;28;19959;-75
2023/10/24 05:39:03;;;;;;;;;;;;;;;9.60;100.00;100229.72;5048246;28;20352;-75
2023/10/24 05:41:28;;;;;;;;;;;;;;;9.59;100.00;100233.22;5028865;28;20028;-76
2023/10/24 05:43:55;;;;;;;;;;;;;;;9.60;100.00;100240.13;5037074;28;19915;-75
2023/10/24 05:46:20;;;;;;;;;;;;;;;9.61;100.00;100244.47;5011340;28;19925;-75
2023/10/24 05:48:45;;;;;;;;;;;;;;;9.63;100.00;100243.56;5007864;28;20432;-76
2023/10/24 05:51:20;;;;;;;;;;;;;;;9.62;100.00;100247.91;5031360;28;19939;-76
2023/10/24 05:53:45;;;;;;;;;;;;;;;9.64;100.00;100253.06;5008753;28;19926;-75
2023/10/24 05:56:10;;;;;;;;;;;;;;;9.63;100.00;100261.78;5031936;28;20372;-75
2023/10/24 05:58:36;;;;;;;;;;;;;;;9.61;100.00;100260.06;5030568;28;20006;-75
2023/10/24 06:01:01;;;;;;;;;;;;;;;9.57;100.00;100261.03;5008165;28;19923;-75
2023/10/24 06:03:26;;;;;;;;;;;;;;;9.56;100.00;100261.94;5022750;28;19921;-75
2023/10/24 06:05:52;;;;;;;;;;;;;;;9.54;100.00;100262.88;5042212;28;20356;-76
2023/10/24 06:08:17;;;;;;;;;;;;;;;9.51;100.00;100270.75;5024735;28;19928;-76
2023/10/24 06:10:43;;;;;;;;;;;;;;;9.51;100.00;100266.41;5010576;28;19917;-76
2023/10/24 06:13:08;;;;;;;;;;;;;;;9.52;100.00;100264.69;5010162;28;20834;-75
2023/10/24 06:15:33;;;;;;;;;;;;;;;9.54;100.00;100255.06;5020537;28;20377;-75
2023/10/24 06:17:58;;;;;;;;;;;;;;;9.53;100.00;100242.97;5025396;28;19931;-75
2023/10/24 06:20:24;;;;;;;;;;;;;;;9.52;100.00;100243.88;5022845;28;19930;-75
2023/10/24 06:22:49;;;;;;;;;;;;;;;9.50;100.00;100241.28;5038323;28;19917;-75
2023/10/24 06:25:14;;;;;;;;;;;;;;;9.52;100.00;100242.13;5021184;28;19925;-75
2023/10/24 06:27:41;;;;;;;;;;;;;;;9.53;100.00;100243.81;5016542;28;20282;-75
2023/10/24 06:30:06;;;;;;;;;;;;;;;9.51;100.00;100240.38;5016812;28;19917;-75
2023/10/24 06:32:32;;;;;;;;;;;;;;;9.52;100.00;100262.94;5005067;28;19990;-76
2023/10/24 06:34:57;;;;;;;;;;;;;;;9.53;100.00;100263.78;5001703;28;19963;-75
2023/10/24 06:37:22;;;;;;;;;;;;;;;9.56;100.00;100274.94;5016905;28;20407;-76
2023/10/24 06:39:47;;;;;;;;;;;;;;;9.59;100.00;100274.88;5032257;28;20357;-75
2023/10/24 06:42:12;;;;;;;;;;;;;;;9.61;100.00;100280.00;5019718;28;19918;-76
2023/10/24 06:44:38;;;;;;;;;;;;;;;9.63;100.00;100286.03;5015415;28;20372;-76
2023/10/24 06:47:03;;;;;;;;;;;;;;;9.65;100.00;100283.41;5020383;28;19917;-76
2023/10/24 06:49:28;;;;;;;;;;;;;;;9.68;100.00;100280.69;5017288;28;20383;-77
2023/10/24 06:51:53;;;;;;;;;;;;;;;9.69;100.00;100266.81;5002527;28;20000;-77
2023/10/24 06:54:19;;;;;;;;;;;;;;;9.71;100.00;100264.97;5000926;28;19924;-76
2023/10/24 06:56:44;;;;;;;;;;;;;;;9.74;100.00;100268.34;5029671;28;20360;-76
2023/10/24 06:59:09;;;;;;;;;;;;;;;9.74;100.00;100254.50;5014653;28;20538;-76
2023/10/24 07:01:34;;;;;;;;;;;;;;;9.75;100.00;100259.66;5011668;28;19970;-76
2023/10/24 07:03:59;;;;;;;;;;;;;;;9.77;100.00;100257.00;5006287;28;19978;-76
2023/10/24 07:06:25;;;;;;;;;;;;;;;9.79;100.00;100255.22;5017692;28;19975;-76
2023/10/24 07:08:51;;;;;;;;;;;;;;;9.79;100.00;100243.06;5010781;28;19923;-76
2023/10/24 07:11:17;;;;;;;;;;;;;;;9.80;100.00;100249.94;5035568;28;19925;-76
2023/10/24 07:13:42;;;;;;;;;;;;;;;9.83;100.00;100256.81;5010465;28;19929;-77
2023/10/24 07:16:14;;;;;;;;;;;;;;;9.85;100.00;100257.66;5021836;28;19917;-76
2023/10/24 07:18:39;;;;;;;;;;;;;;;9.87;100.00;100244.56;5012195;28;19978;-76
2023/10/24 07:21:04;;;;;;;;;;;;;;;9.91;100.00;100256.59;5022221;28;19956;-76
2023/10/24 07:23:29;;;;;;;;;;;;;;;9.92;100.00;100250.50;5005460;28;19996;-76
2023/10/24 07:25:57;;;;;;;;;;;;;;;9.98;100.00;100250.31;5018863;28;19939;-76
2023/10/24 07:28:23;;;;;;;;;;;;;;;10.04;100.00;100256.19;5019019;28;20380;-76
2023/10/24 07:30:51;;;;;;;;;;;;;;;10.12;100.00;100265.50;5015340;28;19918;-77
2023/10/24 07:33:18;;;;;;;;;;;;;;;10.15;100.00;100263.66;5012460;28;20436;-77
2023/10/24 07:35:43;;;;;;;;;;;;;;;10.23;100.00;100253.00;5009440;28;19918;-76
2023/10/24 07:38:08;;;;;;;;;;;;;;;10.31;100.00;100245.84;5019707;28;20109;-76
2023/10/24 07:40:33;;;;;;;;;;;;;;;10.40;100.00;100248.16;5013969;28;20009;-75
2023/10/24 07:42:58;;;;;;;;;;;;;;;10.44;100.00;100251.50;5006781;28;20379;-75
2023/10/24 07:45:23;;;;;;;;;;;;;;;10.46;100.00;100250.56;5006793;28;19917;-75
2023/10/24 07:47:49;;;;;;;;;;;;;;;10.48;100.00;100238.31;5008894;28;19921;-74
2023/10/24 07:50:14;;;;;;;;;;;;;;;10.53;100.00;100238.19;5023813;28;20368;-75
2023/10/24 07:52:39;;;;;;;;;;;;;;;10.57;100.00;100246.75;5045202;28;20457;-75
2023/10/24 07:55:05;;;;;;;;;;;;;;;10.60;100.00;100238.84;5020389;28;19917;-75
2023/10/24 07:57:30;;;;;;;;;;;;;;;10.59;100.00;100237.13;5051319;28;20380;-75
2023/10/24 07:59:55;;;;;;;;;;;;;;;10.53;100.00;100243.41;5021371;28;19924;-75
2023/10/24 08:02:20;;;;;;;;;;;;;;;10.43;100.00;100245.47;5022932;28;19917;-75
2023/10/24 08:04:46;;;;;;;;;;;;;;;10.33;100.00;100241.41;5033543;28;20012;-75
2023/10/24 08:07:11;;;;;;;;;;;;;;;10.28;100.00;100230.31;5048250;28;19924;-75
2023/10/24 08:09:36;;;;;;;;;;;;;;;10.24;100.00;100234.72;5018456;28;19921;-75
2023/10/24 08:12:01;;;;;;;;;;;;;;;10.28;100.00;100241.56;5051315;28;19921;-75
2023/10/24 08:14:26;;;;;;;;;;;;;;;10.39;100.00;100249.03;5035298;28;19921;-75
2023/10/24 08:16:52;;;;;;;;;;;;;;;10.57;100.00;100246.75;5017600;28;19917;-75
2023/10/24 08:19:17;;;;;;;;;;;;;;;10.74;100.00;100239.22;5023959;28;19913;-75
2023/10/24 08:21:42;;;;;;;;;;;;;;;10.88;100.00;100244.81;5022101;28;19928;-75
2023/10/24 08:24:07;;;;;;;;;;;;;;;11.02;100.00;100245.19;5023064;28;19925;-75
2023/10/24 08:26:40;;;;;;;;;;;;;;;11.13;100.00;100244.81;5095383;27;19920;-74
2023/10/24 08:29:05;;;;;;;;;;;;;;;11.22;100.00;100241.88;5081166;28;20335;-74
2023/10/24 08:31:31;;;;;;;;;;;;;;;11.25;100.00;100246.16;5081434;28;19931;-74
2023/10/24 08:33:56;;;;;;;;;;;;;;;11.20;100.00;100258.50;5075381;28;19929;-74
2023/10/24 08:36:21;;;;;;;;;;;;;;;11.18;100.00;100262.91;5077845;28;19924;-74
2023/10/24 08:38:46;;;;;;;;;;;;;;;11.20;100.00;100268.94;5082562;28;19925;-73
2023/10/24 08:41:11;;;;;;;;;;;;;;;11.21;100.00;100270.63;5080313;28;20445;-74
2023/10/24 08:43:37;;;;;;;;;;;;;;;11.23;100.00;100274.03;5089373;28;19921;-74
2023/10/24 08:46:03;;;;;;;;;;;;;;;11.24;100.00;100265.31;5078587;28;19920;-74
2023/10/24 08:48:30;;;;;;;;;;;;;;;11.28;100.00;100268.66;5086362;28;19931;-74
2023/10/24 08:50:56;;;;;;;;;;;;;;;11.26;100.00;100268.72;5079840;28;20368;-74
2023/10/24 08:53:21;;;;;;;;;;;;;;;11.22;100.00;100267.13;5087819;28;19921;-74
2023/10/24 08:55:51;;;;;;;;;;;;;;;11.19;100.00;100252.44;5077557;28;19924;-74
2023/10/24 08:58:18;;;;;;;;;;;;;;;11.11;100.00;100259.66;5080088;28;20012;-74
2023/10/24 09:00:43;;;;;;;;;;;;;;;11.11;100.00;100269.25;5083314;28;19920;-74
2023/10/24 09:03:09;;;;;;;;;;;;;;;11.10;100.00;100267.56;5080241;28;20451;-74
2023/10/24 09:05:36;;;;;;;;;;;;;;;11.13;100.00;100251.78;5083643;28;19966;-74
2023/10/24 09:08:01;;;;;;;;;;;;;;;11.19;100.00;100241.16;5078208;28;19921;-74
2023/10/24 09:10:26;;;;;;;;;;;;;;;11.20;100.00;100246.31;5086961;28;19942;-74
2023/10/24 09:12:53;;;;;;;;;;;;;;;11.24;100.00;100249.66;5079841;28;19924;-74
2023/10/24 09:15:18;;;;;;;;;;;;;;;11.28;100.00;100233.00;5086324;28;20455;-74
2023/10/24 09:17:43;;;;;;;;;;;;;;;11.34;100.00;100232.75;5080017;28;19964;-74
2023/10/24 09:20:08;;;;;;;;;;;;;;;11.41;100.00;100236.88;5078514;28;20024;-74
2023/10/24 09:22:35;;;;;;;;;;;;;;;11.50;100.00;100243.50;5082269;28;19974;-74
2023/10/24 09:25:01;;;;;;;;;;;;;;;11.61;100.00;100230.06;5085156;28;19960;-74
2023/10/24 09:27:29;;;;;;;;;;;;;;;11.69;100.00;100220.16;5102576;28;19927;-74
2023/10/24 09:29:55;;;;;;;;;;;;;;;11.82;100.00;100217.94;5097751;28;19923;-74
2023/10/24 09:32:20;;;;;;;;;;;;;;;12.01;100.00;100220.72;5099610;28;19920;-74
2023/10/24 09:34:46;;;;;;;;;;;;;;;12.20;100.00;100229.53;5092955;28;20363;-74
2023/10/24 09:37:13;;;;;;;;;;;;;;;12.37;100.00;100227.09;5090264;28;19920;-74
2023/10/24 09:39:54;;;;;;;;;;;;;;;12.47;100.00;100240.63;5087289;28;19920;-74
2023/10/24 09:42:24;;;;;;;;;;;;;;;12.56;100.00;100245.50;5085947;28;20651;-74
2023/10/24 09:44:49;;;;;;;;;;;;;;;12.57;100.00;100241.13;5087829;28;20288;-74
2023/10/24 09:47:15;;;;;;;;;;;;;;;12.67;100.00;100236.34;5086226;28;19916;-74
2023/10/24 09:49:41;;;;;;;;;;;;;;;12.64;100.00;100216.41;5086176;28;19966;-74
2023/10/24 09:52:06;;;;;;;;;;;;;;;12.58;100.00;100208.81;5086601;28;19919;-74
2023/10/24 09:54:32;;;;;;;;;;;;;;;12.52;100.00;100215.13;5089074;28;19931;-74
2023/10/24 09:56:57;;;;;;;;;;;;;;;12.45;100.00;100224.16;5086297;28;20011;-74
2023/10/24 09:59:24;;;;;;;;;;;;;;;12.46;100.00;100223.25;5086544;28;19924;-74
2023/10/24 10:01:50;;;;;;;;;;;;;;;12.51;100.00;100210.00;5069941;28;19927;-74
2023/10/24 10:04:16;;;;;;;;;;;;;;;12.46;100.00;100223.25;5082557;28;19924;-74
2023/10/24 10:06:41;;;;;;;;;;;;;;;12.49;100.00;100227.50;5084656;28;19931;-74
2023/10/24 10:09:10;;;;;;;;;;;;;;;12.55;100.00;100229.84;5082845;28;20333;-74
2023/10/24 10:11:36;;;;;;;;;;;;;;;12.58;100.00;100227.13;5086022;28;19917;-74
2023/10/24 10:14:07;;;;;;;;;;;;;;;12.53;100.00;100229.94;5085971;28;20148;-74
2023/10/24 10:16:44;;;;;;;;;;;;;;;12.50;100.00;100235.28;5087342;28;19925;-74
2023/10/24 10:19:19;;;;;;;;;;;;;;;12.50;100.00;100229.22;5070128;28;20492;-74
2023/10/24 10:21:59;;;;;;;;;;;;;;;12.47;100.00;100238.03;5084385;28;19916;-74
2023/10/24 10:24:24;;;;;;;;;;;;;;;12.41;100.00;100240.88;5072952;28;19997;-74
2023/10/24 10:27:03;;;;;;;;;;;;;;;12.31;100.00;100234.31;5086767;28;19920;-74
2023/10/24 10:29:28;;;;;;;;;;;;;;;12.22;100.00;100240.75;5086546;28;20441;-74
2023/10/24 10:31:54;;;;;;;;;;;;;;;12.15;100.00;100240.16;5083125;28;19925;-74
2023/10/24 10:34:28;;;;;;;;;;;;;;;12.09;100.00;100224.72;5081731;28;19920;-74
2023/10/24 10:36:54;;;;;;;;;;;;;;;12.05;100.00;100233.59;5087646;28;19927;-74
2023/10/24 10:39:19;;;;;;;;;;;;;;;11.99;100.00;100226.00;5090861;28;19920;-74
2023/10/24 10:41:45;;;;;;;;;;;;;;;11.95;100.00;100232.25;5085692;28;19960;-74
2023/10/24 10:44:29;;;;;;;;;;;;;;;11.82;100.00;100224.00;5084917;28;19931;-74
2023/10/24 10:47:01;;;;;;;;;;;;;;;11.71;100.00;100227.03;5084949;28;19924;-74
2023/10/24 10:49:26;;;;;;;;;;;;;;;11.60;100.00;100223.13;5091403;28;19999;-74
2023/10/24 10:51:55;;;;;;;;;;;;;;;11.50;100.00;100214.78;5085711;28;19970;-74
2023/10/24 10:54:33;;;;;;;;;;;;;;;11.42;100.00;100225.50;5084329;28;19927;-74
2023/10/24 10:57:02;;;;;;;;;;;;;;;11.37;100.00;100227.41;5085231;28;19938;-74
2023/10/24 11:00:00;;;;;;;;;;;;;;;11.32;100.00;100228.53;5084516;28;20296;-74
2023/10/24 11:02:40;;;;;;;;;;;;;;;11.22;100.00;100226.25;5041968;28;19928;-74
2023/10/24 11:05:24;;;;;;;;;;;;;;;11.15;100.00;100229.97;5078013;28;19920;-74
2023/10/24 11:07:50;;;;;;;;;;;;;;;11.07;100.00;100231.13;5079907;28;19979;-75
2023/10/24 11:10:16;;;;;;;;;;;;;;;11.03;100.00;100235.63;5085442;28;19946;-75
2023/10/24 11:12:46;;;;;;;;;;;;;;;10.97;100.00;100236.66;5086679;28;19920;-75
2023/10/24 11:15:13;;;;;;;;;;;;;;;10.96;100.00;100245.41;5076911;28;20381;-75
2023/10/24 11:17:38;;;;;;;;;;;;;;;10.97;100.00;100247.09;5085343;28;19999;-75
2023/10/24 11:20:10;;;;;;;;;;;;;;;11.04;100.00;100254.72;5083140;28;20012;-75
2023/10/24 11:22:38;;;;;;;;;;;;;;;11.12;100.00;100243.13;5085674;28;19924;-75
2023/10/24 11:25:13;;;;;;;;;;;;;;;11.12;100.00;100237.91;5082085;28;19932;-75
2023/10/24 11:27:39;;;;;;;;;;;;;;;11.12;100.00;100243.13;5089672;28;20322;-75
2023/10/24 11:30:05;;;;;;;;;;;;;;;11.06;100.00;100229.44;5082502;28;19936;-74
2023/10/24 11:32:30;;;;;;;;;;;;;;;11.04;100.00;100226.03;5087414;28;20383;-74
2023/10/24 11:34:56;;;;;;;;;;;;;;;10.99;100.00;100226.22;5080531;28;20573;-74
2023/10/24 11:37:21;;;;;;;;;;;;;;;10.94;100.00;100233.31;5083970;28;19924;-74
2023/10/24 11:39:47;;;;;;;;;;;;;;;10.88;100.00;100226.56;5084887;28;19977;-74
2023/10/24 11:42:13;;;;;;;;;;;;;;;10.85;100.00;100233.63;5082774;28;19916;-74
2023/10/24 11:44:39;;;;;;;;;;;;;;;10.81;100.00;100221.63;5084666;28;19971;-75
2023/10/24 11:47:05;;;;;;;;;;;;;;;10.76;100.00;100217.41;5084564;28;19998;-75
2023/10/24 11:49:36;;;;;;;;;;;;;;;10.73;100.00;100220.13;5083871;28;19921;-75
2023/10/24 11:52:02;;;;;;;;;;;;;;;10.69;100.00;100222.88;5081205;28;20307;-75
2023/10/24 11:54:27;;;;;;;;;;;;;;;10.63;100.00;100220.50;5084441;28;19928;-75
2023/10/24 11:56:53;;;;;;;;;;;;;;;10.63;100.00;100207.47;5083305;28;19936;-75
2023/10/24 11:59:18;;;;;;;;;;;;;;;10.62;100.00;100193.56;5082297;28;20426;-75
2023/10/24 12:01:44;;;;;;;;;;;;;;;10.60;100.00;100195.38;5082013;28;20283;-75
2023/10/24 12:04:11;;;;;;;;;;;;;;;10.59;100.00;100201.47;5077856;28;19924;-75
2023/10/24 12:06:36;;;;;;;;;;;;;;;10.58;100.00;100196.31;5082194;28;20058;-74
2023/10/24 12:09:01;;;;;;;;;;;;;;;10.52;100.00;100185.19;5088931;28;20345;-74
2023/10/24 12:11:27;;;;;;;;;;;;;;;10.54;100.00;100196.44;5081973;28;20368;-75
2023/10/24 12:13:52;;;;;;;;;;;;;;;10.53;100.00;100194.72;5082821;28;19921;-74
2023/10/24 12:16:17;;;;;;;;;;;;;;;10.55;100.00;100197.28;5085172;28;19921;-74
2023/10/24 12:18:43;;;;;;;;;;;;;;;10.58;100.00;100191.09;5079734;28;20422;-74
2023/10/24 12:21:09;;;;;;;;;;;;;;;10.61;100.00;100180.59;5086939;28;19920;-74
2023/10/24 12:23:35;;;;;;;;;;;;;;;10.66;100.00;100182.13;5076637;28;19924;-74
2023/10/24 12:26:01;;;;;;;;;;;;;;;10.72;100.00;100181.06;5085865;28;19928;-75